Time;durP1;ratioP1;P1;durP2;ratioP2;P2;SDS_P1;SDS_P2;PMS_P1;PMS_P2;Temp;Humidity;BMP_temperature;BMP_pressure;BME280_temperature;BME280_humidity;BME280_pressure;Samples;Min_cycle;Max_cycle;Signal;HPM_P1;HPM_P2
2022/09/11 00:00:50;;;;;;;11.17;9.23;;;14.90;99.90;;;;;;5114121;28;20178;-44
2022/09/11 00:03:17;;;;;;;13.23;8.73;;;14.80;99.90;;;;;;5112551;28;20316;-44
2022/09/11 00:05:43;;;;;;;10.73;8.40;;;14.80;99.90;;;;;;5114011;28;20687;-43
2022/09/11 00:08:12;;;;;;;12.73;8.87;;;14.80;99.90;;;;;;5117058;28;20547;-45
2022/09/11 00:10:40;;;;;;;12.73;8.67;;;14.80;99.90;;;;;;5117845;28;20193;-44
2022/09/11 00:13:07;;;;;;;10.77;8.97;;;14.80;99.90;;;;;;5120831;28;20197;-43
2022/09/11 00:15:51;;;;;;;16.87;10.07;;;14.70;99.90;;;;;;5118151;28;20204;-43
2022/09/11 00:18:22;;;;;;;13.17;9.30;;;14.70;99.90;;;;;;5120402;28;20226;-44
2022/09/11 00:20:53;;;;;;;15.30;9.23;;;14.70;99.90;;;;;;5119687;28;20165;-44
2022/09/11 00:23:22;;;;;;;14.27;8.93;;;14.70;99.90;;;;;;5115187;28;20192;-45
2022/09/11 00:25:48;;;;;;;17.80;9.80;;;14.60;99.90;;;;;;5113196;28;20262;-43
2022/09/11 00:28:19;;;;;;;15.20;9.70;;;14.60;99.90;;;;;;5112641;28;20183;-45
2022/09/11 00:30:47;;;;;;;13.53;9.17;;;14.50;99.90;;;;;;5114207;28;20190;-44
2022/09/11 00:33:14;;;;;;;14.83;9.40;;;14.50;99.90;;;;;;5113357;28;20538;-44
2022/09/11 00:35:40;;;;;;;14.20;9.07;;;14.50;99.90;;;;;;5113915;28;20229;-44
2022/09/11 00:38:07;;;;;;;14.33;9.37;;;14.50;99.90;;;;;;5113646;28;20636;-46
2022/09/11 00:40:44;;;;;;;14.43;10.30;;;14.40;99.90;;;;;;5112353;28;20185;-45
2022/09/11 00:43:12;;;;;;;16.47;10.73;;;14.40;99.90;;;;;;5113940;28;20163;-45
2022/09/11 00:45:38;;;;;;;19.20;10.50;;;14.40;99.90;;;;;;5113471;28;20205;-44
2022/09/11 00:48:04;;;;;;;14.30;10.60;;;14.40;99.90;;;;;;5113351;28;20183;-47
2022/09/11 00:50:31;;;;;;;13.80;10.17;;;14.40;99.90;;;;;;5112208;28;20182;-44
2022/09/11 00:53:00;;;;;;;13.90;10.57;;;14.40;99.90;;;;;;5113962;28;20227;-45
2022/09/11 00:55:31;;;;;;;13.47;10.23;;;14.40;99.90;;;;;;5112459;28;20554;-44
2022/09/11 00:58:07;;;;;;;13.03;10.57;;;14.40;99.90;;;;;;5112531;28;20577;-44
2022/09/11 01:00:33;;;;;;;16.07;11.50;;;14.40;99.90;;;;;;5113942;28;20199;-44
2022/09/11 01:02:59;;;;;;;13.90;10.50;;;14.40;99.90;;;;;;5113285;28;20250;-44
2022/09/11 01:05:29;;;;;;;16.57;11.77;;;14.40;99.90;;;;;;5116179;28;20195;-46
2022/09/11 01:07:55;;;;;;;13.07;11.03;;;14.40;99.90;;;;;;5116884;28;20249;-43
2022/09/11 01:10:37;;;;;;;15.03;11.70;;;14.40;99.90;;;;;;5116669;28;20243;-43
2022/09/11 01:13:40;;;;;;;12.37;10.77;;;14.30;99.90;;;;;;5115507;28;20170;-45
2022/09/11 01:16:11;;;;;;;13.07;10.57;;;14.30;99.90;;;;;;5099248;28;20214;-44
2022/09/11 01:18:56;;;;;;;15.67;11.07;;;14.30;99.90;;;;;;5115257;28;20253;-45
2022/09/11 01:22:02;;;;;;;14.17;10.93;;;14.20;99.90;;;;;;5116597;28;20285;-43
2022/09/11 01:24:46;;;;;;;17.33;11.90;;;14.20;99.90;;;;;;5116663;28;20253;-43
2022/09/11 01:27:50;;;;;;;16.33;11.50;;;14.20;99.90;;;;;;5115099;28;20173;-44
2022/09/11 01:30:19;;;;;;;17.03;11.20;;;14.20;99.90;;;;;;5115157;28;20257;-46
2022/09/11 01:33:10;;;;;;;15.23;11.50;;;14.20;99.90;;;;;;5115214;28;20544;-45
2022/09/11 01:35:35;;;;;;;17.57;12.23;;;14.20;99.90;;;;;;5116364;28;20675;-43
2022/09/11 01:38:31;;;;;;;17.33;12.97;;;14.20;99.90;;;;;;5114620;28;20204;-46
2022/09/11 01:41:19;;;;;;;18.67;12.77;;;14.20;99.90;;;;;;5116365;28;20173;-43
2022/09/11 01:43:55;;;;;;;17.33;12.67;;;14.20;99.90;;;;;;5116018;28;20166;-44
2022/09/11 01:46:23;;;;;;;18.13;14.07;;;14.30;99.90;;;;;;5115978;27;20190;-43
2022/09/11 01:49:03;;;;;;;15.60;12.77;;;14.30;99.90;;;;;;5115913;28;20182;-43
2022/09/11 01:51:32;;;;;;;16.77;13.27;;;14.30;99.90;;;;;;5116172;28;20630;-39
2022/09/11 01:54:00;;;;;;;18.47;13.87;;;14.30;99.90;;;;;;5116173;28;20541;-41
2022/09/11 01:56:31;;;;;;;18.87;14.23;;;14.40;99.90;;;;;;5115717;28;20194;-39
2022/09/11 01:59:02;;;;;;;21.33;15.90;;;14.40;99.90;;;;;;5115708;28;20201;-39
2022/09/11 02:01:31;;;;;;;18.87;15.10;;;14.40;99.90;;;;;;5116225;28;20162;-38
2022/09/11 02:04:12;;;;;;;21.17;15.80;;;14.40;99.90;;;;;;5115443;28;20665;-38
2022/09/11 02:07:02;;;;;;;18.30;14.40;;;14.50;99.90;;;;;;5115542;28;20512;-38
2022/09/11 02:09:33;;;;;;;22.23;15.33;;;14.50;99.90;;;;;;5115815;27;20168;-40
2022/09/11 02:12:06;;;;;;;22.83;15.40;;;14.50;99.90;;;;;;5115501;28;20238;-38
2022/09/11 02:14:40;;;;;;;23.30;16.43;;;14.60;99.90;;;;;;5115684;28;20253;-40
2022/09/11 02:17:30;;;;;;;23.07;16.40;;;14.60;99.90;;;;;;5114781;28;20177;-39
2022/09/11 02:19:58;;;;;;;25.97;17.03;;;14.60;99.90;;;;;;5114150;28;20170;-41
2022/09/11 02:22:24;;;;;;;24.63;17.03;;;14.60;99.90;;;;;;5115115;28;20167;-39
2022/09/11 02:24:50;;;;;;;26.53;18.27;;;14.60;99.90;;;;;;5113937;28;20706;-41
2022/09/11 02:27:26;;;;;;;27.03;18.60;;;14.60;99.90;;;;;;5113723;28;20190;-38
2022/09/11 02:29:53;;;;;;;24.60;17.80;;;14.60;99.90;;;;;;5115101;28;20495;-38
2022/09/11 02:32:20;;;;;;;28.57;19.17;;;14.60;99.90;;;;;;5115421;28;20582;-38
2022/09/11 02:34:47;;;;;;;30.90;19.50;;;14.70;99.90;;;;;;5115039;28;20281;-40
2022/09/11 02:37:46;;;;;;;28.47;19.83;;;14.70;99.90;;;;;;5114857;28;20178;-39
2022/09/11 02:40:42;;;;;;;26.83;18.00;;;14.70;99.90;;;;;;5114860;28;20253;-41
2022/09/11 02:43:29;;;;;;;26.43;18.20;;;14.70;99.90;;;;;;5115205;28;20733;-41
2022/09/11 02:45:58;;;;;;;32.03;19.80;;;14.70;99.90;;;;;;5114913;28;20194;-42
2022/09/11 02:48:48;;;;;;;28.17;19.20;;;14.70;99.90;;;;;;5114611;28;20170;-42
2022/09/11 02:51:39;;;;;;;26.17;18.30;;;14.70;99.90;;;;;;5114641;28;20224;-38
2022/09/11 02:54:14;;;;;;;27.43;19.43;;;14.70;99.90;;;;;;5114491;28;20200;-40
2022/09/11 02:57:02;;;;;;;30.80;20.70;;;14.70;99.90;;;;;;5114482;28;20319;-39
2022/09/11 03:00:01;;;;;;;34.00;21.40;;;14.80;99.90;;;;;;5114616;28;20289;-39
2022/09/11 03:02:32;;;;;;;29.73;19.57;;;14.80;99.90;;;;;;5112437;28;20182;-42
2022/09/11 03:04:58;;;;;;;31.93;20.43;;;14.80;99.90;;;;;;5113052;28;20214;-40
2022/09/11 03:07:24;;;;;;;34.37;21.93;;;14.80;99.90;;;;;;5114541;28;20202;-42
2022/09/11 03:09:50;;;;;;;32.90;20.43;;;14.70;99.90;;;;;;5114380;28;20177;-40
2022/09/11 03:12:16;;;;;;;34.73;21.47;;;14.80;99.90;;;;;;5114415;28;20173;-42
2022/09/11 03:14:42;;;;;;;41.30;23.03;;;14.80;99.90;;;;;;5114160;28;20265;-40
2022/09/11 03:17:08;;;;;;;36.70;19.70;;;14.80;99.90;;;;;;5112890;28;20612;-40
2022/09/11 03:19:34;;;;;;;40.57;22.70;;;14.80;99.90;;;;;;5113986;28;20273;-39
2022/09/11 03:22:01;;;;;;;39.50;22.57;;;14.80;99.90;;;;;;5114502;28;20181;-39
2022/09/11 03:24:27;;;;;;;41.57;24.40;;;14.80;99.90;;;;;;5114090;28;20193;-40
2022/09/11 03:26:53;;;;;;;45.33;25.10;;;14.80;99.90;;;;;;5113941;28;20241;-40
2022/09/11 03:29:19;;;;;;;40.77;21.97;;;14.80;99.90;;;;;;5114434;28;20257;-37
2022/09/11 03:31:45;;;;;;;35.93;21.77;;;14.80;99.90;;;;;;5114166;28;20189;-38
2022/09/11 03:34:11;;;;;;;31.10;20.53;;;14.80;99.90;;;;;;5114056;28;20174;-39
2022/09/11 03:36:36;;;;;;;37.83;22.80;;;14.80;99.90;;;;;;5114628;28;20652;-40
2022/09/11 03:39:03;;;;;;;43.90;22.00;;;14.80;99.90;;;;;;5112519;28;20314;-40
2022/09/11 03:41:28;;;;;;;41.20;23.73;;;14.80;99.90;;;;;;5114490;28;20271;-42
2022/09/11 03:43:54;;;;;;;34.40;21.73;;;14.70;99.90;;;;;;5113964;28;20245;-41
2022/09/11 03:46:19;;;;;;;44.40;23.30;;;14.80;99.90;;;;;;5113982;28;20586;-39
2022/09/11 03:48:45;;;;;;;41.93;22.80;;;14.70;99.90;;;;;;5114090;28;20261;-39
2022/09/11 03:51:13;;;;;;;41.43;23.23;;;14.70;99.90;;;;;;5114367;28;20187;-40
2022/09/11 03:53:40;;;;;;;45.10;24.67;;;14.70;99.90;;;;;;5114365;28;20205;-40
2022/09/11 03:56:06;;;;;;;40.53;25.43;;;14.70;99.90;;;;;;5114530;28;20198;-38
2022/09/11 03:58:31;;;;;;;42.47;25.53;;;14.80;99.90;;;;;;5114401;28;20723;-41
2022/09/11 04:00:57;;;;;;;45.47;25.87;;;14.70;99.90;;;;;;5112874;28;20575;-40
2022/09/11 04:03:23;;;;;;;40.13;24.33;;;14.80;99.90;;;;;;5114106;28;20272;-39
2022/09/11 04:05:57;;;;;;;43.97;24.57;;;14.70;99.90;;;;;;5113808;28;20197;-41
2022/09/11 04:08:23;;;;;;;41.60;24.53;;;14.70;99.90;;;;;;5113970;28;20635;-39
2022/09/11 04:10:54;;;;;;;37.23;22.70;;;14.70;99.90;;;;;;5112374;28;20189;-38
2022/09/11 04:13:20;;;;;;;39.87;22.03;;;14.70;99.90;;;;;;5113776;28;20687;-41
2022/09/11 04:15:46;;;;;;;28.13;20.50;;;14.70;99.90;;;;;;5113645;28;20396;-38
2022/09/11 04:18:12;;;;;;;35.10;21.17;;;14.70;99.90;;;;;;5113487;28;20296;-40
2022/09/11 04:20:38;;;;;;;28.57;19.90;;;14.70;99.90;;;;;;5113710;28;20174;-42
2022/09/11 04:23:04;;;;;;;35.03;19.90;;;14.70;99.90;;;;;;5112196;28;20287;-39
2022/09/11 04:25:30;;;;;;;42.43;19.07;;;14.70;99.90;;;;;;5113494;28;20297;-40
2022/09/11 04:27:55;;;;;;;36.73;18.93;;;14.60;99.90;;;;;;5113454;28;20539;-39
2022/09/11 04:30:21;;;;;;;32.03;19.63;;;14.60;99.90;;;;;;5113435;28;20177;-39
2022/09/11 04:32:46;;;;;;;31.93;19.27;;;14.60;99.90;;;;;;5113730;28;20612;-40
2022/09/11 04:35:12;;;;;;;30.20;19.37;;;14.50;99.90;;;;;;5113467;28;20194;-40
2022/09/11 04:37:38;;;;;;;31.07;19.53;;;14.60;99.90;;;;;;5111991;28;20182;-41
2022/09/11 04:40:04;;;;;;;26.17;18.40;;;14.50;99.90;;;;;;5116102;28;20724;-41
2022/09/11 04:42:29;;;;;;;33.43;18.77;;;14.60;99.90;;;;;;5117968;28;20166;-39
2022/09/11 04:44:55;;;;;;;33.87;17.63;;;14.60;99.90;;;;;;5117092;28;20191;-40
2022/09/11 04:47:20;;;;;;;38.90;18.90;;;14.60;99.90;;;;;;5117230;28;20712;-38
2022/09/11 04:49:47;;;;;;;24.83;17.47;;;14.50;99.90;;;;;;5115962;28;20621;-40
2022/09/11 04:52:14;;;;;;;32.90;18.10;;;14.60;99.90;;;;;;5116949;28;20182;-40
2022/09/11 04:54:40;;;;;;;38.07;17.80;;;14.50;99.90;;;;;;5117549;28;20229;-41
2022/09/11 04:57:05;;;;;;;28.20;18.87;;;14.50;99.90;;;;;;5117901;28;20486;-42
2022/09/11 04:59:31;;;;;;;29.90;18.20;;;14.50;99.90;;;;;;5116776;28;20202;-42
2022/09/11 05:01:57;;;;;;;33.37;18.17;;;14.50;99.90;;;;;;5115868;28;20174;-43
2022/09/11 05:04:22;;;;;;;35.87;18.30;;;14.50;99.90;;;;;;5116860;28;20170;-43
2022/09/11 05:06:48;;;;;;;32.50;19.83;;;14.50;99.90;;;;;;5116921;28;20170;-42
2022/09/11 05:09:16;;;;;;;41.40;18.03;;;14.50;99.90;;;;;;5117009;28;20206;-42
2022/09/11 05:11:41;;;;;;;36.40;20.53;;;14.50;99.90;;;;;;5117217;28;20182;-41
2022/09/11 05:14:08;;;;;;;38.87;21.60;;;14.50;99.90;;;;;;5117198;28;20178;-43
2022/09/11 05:16:35;;;;;;;37.37;21.63;;;14.50;99.90;;;;;;5116891;28;20706;-43
2022/09/11 05:19:05;;;;;;;42.63;21.17;;;14.50;99.90;;;;;;5116755;27;20214;-42
2022/09/11 05:21:32;;;;;;;40.73;22.67;;;14.50;99.90;;;;;;5116903;28;20566;-42
2022/09/11 05:23:59;;;;;;;40.30;22.63;;;14.60;99.90;;;;;;5115336;28;20178;-43
2022/09/11 05:26:28;;;;;;;43.03;22.87;;;14.50;99.90;;;;;;5098181;28;20207;-42
2022/09/11 05:29:08;;;;;;;49.10;25.43;;;14.50;99.90;;;;;;5115206;28;20185;-43
2022/09/11 05:31:34;;;;;;;40.20;25.20;;;14.60;99.90;;;;;;5115054;28;20199;-43
2022/09/11 05:34:00;;;;;;;59.53;25.17;;;14.50;99.90;;;;;;5116210;28;20182;-43
2022/09/11 05:36:26;;;;;;;45.90;26.43;;;14.60;99.90;;;;;;5115154;28;20194;-42
2022/09/11 05:38:52;;;;;;;49.53;25.67;;;14.60;99.90;;;;;;5114540;28;20297;-41
2022/09/11 05:41:18;;;;;;;44.47;24.63;;;14.60;99.90;;;;;;5116273;28;20173;-45
2022/09/11 05:43:45;;;;;;;44.03;24.10;;;14.60;99.90;;;;;;5116101;27;20524;-41
2022/09/11 05:46:13;;;;;;;43.77;23.83;;;14.60;99.90;;;;;;5114514;28;20201;-45
2022/09/11 05:48:39;;;;;;;39.40;23.50;;;14.60;99.90;;;;;;5115888;27;20177;-43
2022/09/11 05:51:18;;;;;;;32.60;21.93;;;14.70;99.90;;;;;;5114811;28;20186;-43
2022/09/11 05:53:44;;;;;;;35.20;23.03;;;14.70;99.90;;;;;;5116088;28;20253;-42
2022/09/11 05:56:18;;;;;;;43.97;24.80;;;14.80;99.90;;;;;;5114742;28;20203;-43
2022/09/11 05:58:45;;;;;;;37.30;23.60;;;14.80;99.90;;;;;;5116147;28;20190;-44
2022/09/11 06:01:13;;;;;;;39.70;24.00;;;14.80;99.90;;;;;;5114604;28;20179;-43
2022/09/11 06:03:39;;;;;;;34.47;23.03;;;14.80;99.90;;;;;;5114506;28;20197;-43
2022/09/11 06:06:08;;;;;;;43.03;24.80;;;14.80;99.90;;;;;;5114113;28;20194;-42
2022/09/11 06:08:34;;;;;;;40.00;24.63;;;14.90;99.90;;;;;;5114209;28;20640;-42
2022/09/11 06:11:02;;;;;;;42.73;25.07;;;14.90;99.90;;;;;;5115447;28;20178;-44
2022/09/11 06:13:29;;;;;;;43.20;24.73;;;14.90;99.90;;;;;;5115261;28;20182;-42
2022/09/11 06:15:55;;;;;;;37.37;21.83;;;14.90;99.90;;;;;;5113978;28;20289;-42
2022/09/11 06:18:21;;;;;;;37.23;23.40;;;14.90;99.90;;;;;;5114066;28;20679;-41
2022/09/11 06:21:06;;;;;;;34.90;21.93;;;14.80;99.90;;;;;;5113861;28;20185;-44
2022/09/11 06:23:34;;;;;;;30.80;20.13;;;14.80;99.90;;;;;;5115278;28;20239;-37
2022/09/11 06:26:04;;;;;;;35.67;19.20;;;14.80;99.90;;;;;;5114941;28;20699;-38
2022/09/11 06:28:29;;;;;;;25.03;19.07;;;14.80;99.90;;;;;;5114984;28;20178;-40
2022/09/11 06:30:55;;;;;;;33.23;19.10;;;14.80;99.90;;;;;;5113713;28;20184;-38
2022/09/11 06:33:21;;;;;;;34.43;18.77;;;14.80;99.90;;;;;;5114851;28;20183;-40
2022/09/11 06:35:57;;;;;;;44.97;19.03;;;14.80;99.90;;;;;;5114969;28;20286;-38
2022/09/11 06:38:23;;;;;;;32.77;18.70;;;14.80;99.90;;;;;;5115138;28;20242;-39
2022/09/11 06:40:50;;;;;;;28.63;20.37;;;14.90;99.90;;;;;;5114801;28;20696;-38
2022/09/11 06:43:16;;;;;;;30.53;21.57;;;14.90;99.90;;;;;;5114994;28;20170;-40
2022/09/11 06:45:42;;;;;;;31.03;21.63;;;14.90;99.90;;;;;;5096319;28;20208;-38
2022/09/11 06:48:08;;;;;;;29.90;21.73;;;14.90;99.90;;;;;;5114859;28;20182;-37
2022/09/11 06:50:40;;;;;;;31.87;22.37;;;14.90;99.90;;;;;;5114535;28;20239;-42
2022/09/11 06:53:06;;;;;;;35.20;21.73;;;14.90;99.90;;;;;;5114695;28;20175;-40
2022/09/11 06:55:33;;;;;;;33.77;21.67;;;15.00;99.90;;;;;;5114379;28;20213;-38
2022/09/11 06:57:59;;;;;;;34.57;22.30;;;15.00;99.90;;;;;;5114560;28;20277;-38
2022/09/11 07:00:24;;;;;;;36.90;21.73;;;15.00;99.90;;;;;;5114602;28;20537;-39
2022/09/11 07:02:55;;;;;;;35.23;21.93;;;15.00;99.90;;;;;;5114248;28;20192;-39
2022/09/11 07:05:21;;;;;;;30.13;21.60;;;15.00;99.90;;;;;;5114522;28;20187;-37
2022/09/11 07:07:49;;;;;;;29.63;20.33;;;15.00;99.90;;;;;;5114322;28;20235;-40
2022/09/11 07:10:15;;;;;;;30.37;22.03;;;15.10;99.90;;;;;;5114193;28;20181;-38
2022/09/11 07:12:41;;;;;;;35.10;22.97;;;15.10;99.90;;;;;;5113185;28;20231;-40
2022/09/11 07:15:08;;;;;;;36.83;24.23;;;15.10;99.90;;;;;;5114190;28;20206;-38
2022/09/11 07:17:33;;;;;;;33.17;21.77;;;15.20;99.90;;;;;;5114032;28;20185;-40
2022/09/11 07:19:59;;;;;;;38.43;23.10;;;15.20;99.90;;;;;;5113958;28;20174;-39
2022/09/11 07:22:25;;;;;;;36.53;25.17;;;15.20;99.90;;;;;;5113965;28;20219;-39
2022/09/11 07:24:53;;;;;;;36.57;23.27;;;15.30;99.90;;;;;;5112531;28;20702;-37
2022/09/11 07:27:19;;;;;;;36.20;23.87;;;15.30;99.90;;;;;;5113844;28;20655;-39
2022/09/11 07:29:44;;;;;;;38.60;23.90;;;15.40;99.90;;;;;;5113892;28;20174;-37
2022/09/11 07:32:10;;;;;;;42.03;24.93;;;15.40;99.90;;;;;;5113746;28;20178;-40
2022/09/11 07:34:35;;;;;;;37.17;23.47;;;15.40;99.90;;;;;;5113811;28;20261;-40
2022/09/11 07:37:01;;;;;;;38.67;23.83;;;15.40;99.90;;;;;;5112578;28;20178;-39
2022/09/11 07:39:27;;;;;;;38.27;24.03;;;15.40;99.90;;;;;;5113200;28;20214;-38
2022/09/11 07:41:52;;;;;;;35.37;22.43;;;15.50;99.90;;;;;;5113658;28;20177;-42
2022/09/11 07:44:19;;;;;;;36.50;22.00;;;15.50;99.90;;;;;;5112926;28;20185;-40
2022/09/11 07:46:45;;;;;;;37.90;22.43;;;15.60;99.90;;;;;;5112288;28;20268;-40
2022/09/11 07:49:10;;;;;;;40.27;24.17;;;15.60;99.90;;;;;;5113559;28;20206;-40
2022/09/11 07:51:36;;;;;;;37.57;22.07;;;15.70;99.90;;;;;;5113512;28;20178;-39
2022/09/11 07:54:02;;;;;;;39.73;24.53;;;15.70;99.90;;;;;;5112165;28;20186;-41
2022/09/11 07:56:29;;;;;;;41.83;24.93;;;15.70;99.90;;;;;;5113279;28;20718;-40
2022/09/11 07:58:56;;;;;;;39.37;22.40;;;15.80;99.90;;;;;;5113383;28;20204;-38
2022/09/11 08:01:28;;;;;;;40.87;22.90;;;15.80;99.90;;;;;;5113712;28;20214;-41
2022/09/11 08:03:59;;;;;;;37.10;23.53;;;15.90;99.90;;;;;;5113693;28;20620;-39
2022/09/11 08:06:27;;;;;;;41.73;24.10;;;15.90;99.90;;;;;;5113255;28;20265;-39
2022/09/11 08:08:54;;;;;;;42.33;24.93;;;15.90;99.90;;;;;;5113747;28;20188;-39
2022/09/11 08:11:20;;;;;;;45.57;26.10;;;15.90;99.90;;;;;;5111999;28;20178;-40
2022/09/11 08:13:49;;;;;;;41.70;25.50;;;16.00;99.90;;;;;;5113987;28;20209;-40
2022/09/11 08:16:15;;;;;;;48.13;25.47;;;16.00;99.90;;;;;;5116225;28;20694;-41
2022/09/11 08:18:41;;;;;;;41.73;24.27;;;16.00;99.90;;;;;;5117483;28;20300;-40
2022/09/11 08:21:09;;;;;;;41.53;24.80;;;16.00;99.90;;;;;;5117510;28;20170;-40
2022/09/11 08:23:35;;;;;;;40.07;22.17;;;16.10;99.90;;;;;;5117236;28;20209;-41
2022/09/11 08:26:12;;;;;;;33.30;21.53;;;16.10;99.90;;;;;;5117235;28;20565;-42
2022/09/11 08:28:41;;;;;;;35.37;21.67;;;16.20;99.90;;;;;;5117339;28;20166;-41
2022/09/11 08:31:07;;;;;;;34.80;20.93;;;16.30;99.90;;;;;;5117103;28;20223;-41
2022/09/11 08:33:33;;;;;;;40.37;22.93;;;16.30;99.90;;;;;;5117490;28;20239;-40
2022/09/11 08:36:01;;;;;;;38.27;21.83;;;16.30;99.90;;;;;;5117367;28;20206;-40
2022/09/11 08:38:27;;;;;;;35.87;21.90;;;16.30;99.90;;;;;;5115741;28;20210;-40
2022/09/11 08:40:53;;;;;;;37.23;22.83;;;16.30;99.90;;;;;;5115840;28;20235;-41
2022/09/11 08:43:26;;;;;;;36.27;22.80;;;16.40;99.90;;;;;;5117131;28;20638;-43
2022/09/11 08:45:57;;;;;;;35.70;22.33;;;16.40;99.90;;;;;;5117284;28;20202;-44
2022/09/11 08:48:31;;;;;;;37.30;22.90;;;16.50;99.90;;;;;;5115603;28;20171;-44
2022/09/11 08:50:57;;;;;;;34.10;22.70;;;16.60;99.90;;;;;;5116836;27;20186;-44
2022/09/11 08:53:22;;;;;;;38.63;23.77;;;16.80;99.90;;;;;;5117119;28;20186;-43
2022/09/11 08:56:17;;;;;;;37.47;23.90;;;16.80;99.90;;;;;;5116677;28;20201;-43
2022/09/11 08:58:50;;;;;;;35.37;22.70;;;16.90;99.90;;;;;;5116704;28;20197;-44
2022/09/11 09:01:47;;;;;;;33.60;22.40;;;16.90;99.90;;;;;;5117012;28;20242;-43
2022/09/11 09:04:31;;;;;;;36.50;22.53;;;16.90;99.90;;;;;;5116602;28;20173;-44
2022/09/11 09:07:25;;;;;;;32.13;20.73;;;16.90;99.90;;;;;;5115452;28;20578;-43
2022/09/11 09:10:20;;;;;;;36.07;21.77;;;17.00;99.90;;;;;;5116507;28;20189;-43
2022/09/11 09:12:55;;;;;;;32.47;20.27;;;17.10;99.90;;;;;;5094523;28;20189;-44
2022/09/11 09:15:26;;;;;;;30.40;19.97;;;17.20;99.90;;;;;;5116561;28;20280;-45
2022/09/11 09:18:08;;;;;;;29.33;19.17;;;17.40;99.90;;;;;;5116430;28;20281;-44
2022/09/11 09:20:44;;;;;;;29.90;18.70;;;17.70;99.90;;;;;;5116799;28;20176;-46
2022/09/11 09:23:22;;;;;;;25.30;16.83;;;17.90;99.90;;;;;;5116580;28;20165;-44
2022/09/11 09:25:51;;;;;;;27.03;18.00;;;18.00;99.90;;;;;;5116337;28;20253;-40
2022/09/11 09:28:23;;;;;;;29.30;18.50;;;18.00;99.90;;;;;;5116673;28;20181;-43
2022/09/11 09:31:05;;;;;;;24.27;17.23;;;18.00;99.90;;;;;;5115989;28;20182;-39
2022/09/11 09:33:34;;;;;;;25.93;17.57;;;18.10;99.90;;;;;;5116838;28;20574;-40
2022/09/11 09:36:28;;;;;;;21.07;16.27;;;18.10;99.90;;;;;;5116015;28;20197;-45
2022/09/11 09:38:54;;;;;;;22.90;16.67;;;18.10;99.90;;;;;;5114757;27;20655;-41
2022/09/11 09:41:44;;;;;;;21.63;16.03;;;18.10;99.90;;;;;;5116070;28;20177;-43
2022/09/11 09:44:21;;;;;;;19.23;14.20;;;18.20;99.90;;;;;;5115900;27;20159;-41
2022/09/11 09:46:50;;;;;;;22.10;13.20;;;18.20;99.90;;;;;;5116028;28;20162;-45
2022/09/11 09:49:22;;;;;;;21.23;14.27;;;18.30;99.90;;;;;;5115836;28;20179;-44
2022/09/11 09:51:48;;;;;;;17.10;12.47;;;18.40;99.90;;;;;;5116028;28;20162;-44
2022/09/11 09:54:16;;;;;;;18.63;13.40;;;18.50;99.90;;;;;;5115907;28;20545;-46
2022/09/11 09:56:52;;;;;;;18.27;13.50;;;18.60;99.90;;;;;;5115786;28;20289;-45
2022/09/11 09:59:58;;;;;;;14.73;12.10;;;18.80;99.90;;;;;;5115786;28;20194;-46
2022/09/11 10:02:39;;;;;;;15.00;12.40;;;19.00;99.90;;;;;;5115311;28;20185;-44
2022/09/11 10:05:15;;;;;;;14.57;11.83;;;19.10;99.90;;;;;;5115434;28;20585;-45
2022/09/11 10:08:00;;;;;;;15.90;10.43;;;19.20;99.90;;;;;;5115839;28;20537;-47
2022/09/11 10:10:35;;;;;;;11.70;8.80;;;19.10;99.90;;;;;;5115642;28;20192;-45
2022/09/11 10:13:23;;;;;;;12.53;8.70;;;19.00;99.90;;;;;;5115636;28;20513;-43
2022/09/11 10:15:55;;;;;;;13.97;9.87;;;19.00;99.90;;;;;;5115810;28;20194;-46
2022/09/11 10:18:45;;;;;;;12.17;8.97;;;19.10;99.90;;;;;;5115911;28;20251;-45
2022/09/11 10:21:11;;;;;;;9.30;7.30;;;19.10;99.90;;;;;;5115736;28;20245;-44
2022/09/11 10:23:58;;;;;;;10.77;8.97;;;19.30;99.90;;;;;;5113947;28;20202;-45
2022/09/11 10:26:49;;;;;;;10.00;8.30;;;19.60;99.90;;;;;;5115333;28;20687;-44
2022/09/11 10:29:18;;;;;;;11.13;7.83;;;19.90;99.90;;;;;;5115496;28;20155;-46
2022/09/11 10:31:54;;;;;;;11.90;7.73;;;20.10;99.90;;;;;;5115330;28;20652;-46
2022/09/11 10:34:24;;;;;;;10.13;8.50;;;20.20;99.90;;;;;;5115506;28;20166;-45
2022/09/11 10:37:01;;;;;;;9.37;7.50;;;20.20;99.90;;;;;;5115006;28;20182;-45
2022/09/11 10:39:30;;;;;;;13.17;7.67;;;20.20;99.90;;;;;;5114844;28;20198;-44
2022/09/11 10:42:00;;;;;;;9.47;7.33;;;20.20;99.90;;;;;;5113585;28;20216;-46
2022/09/11 10:44:28;;;;;;;11.43;8.47;;;20.50;99.90;;;;;;5114666;28;20165;-45
2022/09/11 10:47:20;;;;;;;10.63;8.27;;;20.50;99.90;;;;;;5115116;28;20167;-45
2022/09/11 10:49:47;;;;;;;8.90;6.63;;;20.60;99.90;;;;;;5108653;28;20190;-45
2022/09/11 10:52:13;;;;;;;7.93;6.00;;;20.80;99.90;;;;;;5114922;28;20219;-46
2022/09/11 10:55:05;;;;;;;12.20;6.47;;;21.00;99.90;;;;;;5114808;28;20174;-43
2022/09/11 10:57:38;;;;;;;6.70;5.37;;;21.10;99.90;;;;;;5114574;28;20261;-46
2022/09/11 11:00:15;;;;;;;7.03;5.27;;;21.10;99.90;;;;;;5114839;28;20194;-47
2022/09/11 11:02:54;;;;;;;8.60;4.97;;;21.00;99.90;;;;;;5114385;28;20170;-46
2022/09/11 11:05:31;;;;;;;7.33;5.30;;;20.90;99.90;;;;;;5114653;27;20208;-47
2022/09/11 11:08:22;;;;;;;6.07;5.07;;;20.90;99.90;;;;;;5114260;28;20186;-47
2022/09/11 11:11:19;;;;;;;5.43;4.57;;;20.70;99.90;;;;;;5114422;28;20564;-45
2022/09/11 11:14:03;;;;;;;8.30;4.77;;;20.70;99.90;;;;;;5114498;28;20255;-47
2022/09/11 11:16:48;;;;;;;6.10;4.53;;;20.60;99.90;;;;;;5114505;28;20215;-47
2022/09/11 11:19:35;;;;;;;5.67;4.03;;;20.50;99.90;;;;;;5114654;28;20194;-47
2022/09/11 11:22:51;;;;;;;6.00;4.30;;;20.50;99.90;;;;;;5114759;28;20166;-47
2022/09/11 11:25:26;;;;;;;4.63;3.77;;;20.50;99.90;;;;;;5104401;28;20233;-45
2022/09/11 11:28:15;;;;;;;5.23;4.10;;;20.50;99.90;;;;;;5114460;28;20166;-46
2022/09/11 11:30:46;;;;;;;6.53;4.47;;;20.60;99.90;;;;;;5114401;28;20291;-46
2022/09/11 11:33:15;;;;;;;5.87;3.97;;;20.60;99.90;;;;;;5114444;28;20178;-46
2022/09/11 11:36:03;;;;;;;5.60;3.33;;;20.70;99.90;;;;;;5113860;28;20285;-44
2022/09/11 11:38:46;;;;;;;4.67;4.00;;;20.70;99.90;;;;;;5114166;28;20201;-45
2022/09/11 11:41:22;;;;;;;5.10;3.67;;;20.60;99.90;;;;;;5114166;28;20592;-46
2022/09/11 11:43:51;;;;;;;7.10;3.87;;;20.70;99.90;;;;;;5113815;28;20251;-47
2022/09/11 11:46:20;;;;;;;4.00;3.20;;;20.80;99.90;;;;;;5113783;28;20186;-46
2022/09/11 11:49:12;;;;;;;5.20;4.30;;;20.90;99.90;;;;;;5112811;28;20185;-44
2022/09/11 11:51:51;;;;;;;5.50;3.60;;;21.10;99.90;;;;;;5114515;28;20245;-45
2022/09/11 11:54:23;;;;;;;5.97;3.93;;;21.50;99.90;;;;;;5114100;28;20170;-47
2022/09/11 11:57:09;;;;;;;5.97;4.27;;;21.70;99.90;;;;;;5114099;28;20529;-46
2022/09/11 11:59:49;;;;;;;4.57;4.13;;;21.80;99.90;;;;;;5114273;28;20726;-46
2022/09/11 12:02:22;;;;;;;3.80;3.23;;;21.90;99.90;;;;;;5114805;28;20286;-46
2022/09/11 12:05:04;;;;;;;4.30;3.90;;;21.90;99.90;;;;;;5115219;28;20220;-46
2022/09/11 12:07:32;;;;;;;6.53;4.03;;;22.00;99.90;;;;;;5116525;28;20162;-46
2022/09/11 12:10:00;;;;;;;3.87;3.40;;;22.10;99.90;;;;;;5115265;28;20223;-47
2022/09/11 12:12:29;;;;;;;6.20;3.17;;;22.10;99.90;;;;;;5115226;28;20272;-45
2022/09/11 12:15:07;;;;;;;9.23;3.40;;;22.20;99.90;;;;;;5115089;28;20202;-44
2022/09/11 12:17:35;;;;;;;4.40;3.50;;;22.40;99.90;;;;;;5115338;28;20311;-47
2022/09/11 12:20:10;;;;;;;3.53;3.23;;;22.60;99.90;;;;;;5114706;28;20268;-45
2022/09/11 12:22:49;;;;;;;5.17;2.63;;;22.80;99.90;;;;;;5114728;28;20180;-45
2022/09/11 12:25:18;;;;;;;3.87;2.53;;;22.90;99.90;;;;;;5115444;28;20279;-45
2022/09/11 12:27:54;;;;;;;4.40;2.67;;;23.10;99.90;;;;;;5115570;28;20193;-46
2022/09/11 12:30:24;;;;;;;3.70;2.43;;;23.20;99.90;;;;;;5116996;28;20257;-45
2022/09/11 12:32:51;;;;;;;4.30;2.50;;;23.20;99.90;;;;;;5116393;28;20178;-47
2022/09/11 12:35:45;;;;;;;3.20;2.50;;;23.20;99.90;;;;;;5114336;28;20200;-46
2022/09/11 12:38:36;;;;;;;5.23;2.53;;;23.50;99.90;;;;;;5115015;28;20659;-46
2022/09/11 12:41:11;;;;;;;4.03;2.23;;;23.60;99.90;;;;;;5114451;28;20208;-45
2022/09/11 12:43:40;;;;;;;3.83;2.13;;;23.60;99.90;;;;;;5114117;28;20173;-45
2022/09/11 12:46:21;;;;;;;4.13;2.17;;;23.60;99.90;;;;;;5113685;28;20581;-43
2022/09/11 12:48:47;;;;;;;3.07;2.10;;;23.80;99.90;;;;;;5113312;28;20521;-42
2022/09/11 12:51:26;;;;;;;4.47;2.30;;;23.90;99.90;;;;;;5113184;28;20535;-45
2022/09/11 12:53:59;;;;;;;4.57;2.17;;;24.10;99.90;;;;;;5112949;28;20215;-44
2022/09/11 12:56:26;;;;;;;3.10;1.90;;;24.30;99.90;;;;;;5112842;28;20319;-44